createdAt,value
2023-08-07T00:01:13.121Z,75.54
2023-08-07T00:03:39.627Z,75.59
2023-08-07T00:06:06.239Z,75.84
2023-08-07T00:08:32.791Z,75.24
2023-08-07T00:11:06.568Z,75.55
2023-08-07T00:13:32.962Z,76.25
2023-08-07T00:15:59.310Z,75.47
2023-08-07T00:18:25.724Z,76.56
2023-08-07T00:20:52.098Z,76.01
2023-08-07T00:23:18.485Z,75.74
2023-08-07T00:25:44.825Z,75.71
2023-08-07T00:28:11.163Z,75.83
2023-08-07T00:30:37.569Z,75.76
2023-08-07T00:33:04.002Z,75.05
2023-08-07T00:35:30.557Z,75.32
2023-08-07T00:37:56.917Z,74.75
2023-08-07T00:40:23.313Z,74.52
2023-08-07T00:42:49.735Z,74.65
2023-08-07T00:45:16.148Z,75.07
2023-08-07T00:47:42.587Z,75.11
2023-08-07T00:50:09.472Z,74.92
2023-08-07T00:52:35.862Z,74.49
2023-08-07T00:55:02.625Z,75.35
2023-08-07T00:57:29.204Z,74.01
2023-08-07T00:59:55.563Z,75.91
2023-08-07T01:02:22.056Z,74.94
2023-08-07T01:04:48.711Z,75.07
2023-08-07T01:07:15.096Z,75.48
2023-08-07T01:09:41.949Z,74.65
2023-08-07T01:12:11.283Z,75.17
2023-08-07T01:15:00.763Z,75.05
2023-08-07T01:17:27.957Z,75.85
2023-08-07T01:19:54.590Z,75.54
2023-08-07T01:22:21.625Z,75.45
2023-08-07T01:24:49.984Z,75.75
2023-08-07T01:27:19.371Z,75.74
2023-08-07T01:29:57.813Z,75.40
2023-08-07T01:32:37.006Z,74.82
2023-08-07T01:35:05.332Z,75.76
2023-08-07T01:37:34.779Z,75.10
2023-08-07T01:40:02.577Z,74.92
2023-08-07T01:42:29.079Z,75.03
2023-08-07T01:44:55.493Z,75.12
2023-08-07T01:47:21.946Z,74.34
2023-08-07T01:49:48.365Z,75.10
2023-08-07T01:52:14.768Z,75.33
2023-08-07T01:54:41.242Z,74.33
2023-08-07T01:57:07.637Z,74.32
2023-08-07T01:59:34.023Z,75.15
2023-08-07T02:02:00.438Z,74.08
2023-08-07T02:04:26.841Z,74.37
2023-08-07T02:06:53.331Z,73.54
2023-08-07T02:09:20.192Z,73.68
2023-08-07T02:11:46.593Z,74.07
2023-08-07T02:14:13.000Z,73.61
2023-08-07T02:16:39.395Z,73.73
2023-08-07T02:19:05.787Z,73.94
2023-08-07T02:21:32.861Z,73.48
2023-08-07T02:23:59.339Z,73.29
2023-08-07T02:26:25.728Z,73.74
2023-08-07T02:28:52.093Z,73.67
2023-08-07T02:31:18.517Z,73.96
2023-08-07T02:33:44.960Z,74.43
2023-08-07T02:36:11.423Z,73.99
2023-08-07T02:38:37.785Z,74.41
2023-08-07T02:41:04.319Z,74.28
2023-08-07T02:43:33.956Z,73.62
2023-08-07T02:46:00.355Z,73.44
2023-08-07T02:48:26.716Z,73.28
2023-08-07T02:50:54.194Z,73.57
2023-08-07T02:53:20.555Z,73.77
2023-08-07T02:55:46.925Z,73.80
2023-08-07T02:58:13.311Z,73.67
2023-08-07T03:00:39.676Z,73.27
2023-08-07T03:03:06.515Z,74.49
2023-08-07T03:05:33.034Z,73.44
2023-08-07T03:07:59.415Z,73.25
2023-08-07T03:10:26.841Z,73.59
2023-08-07T03:12:53.458Z,74.96
2023-08-07T03:15:19.824Z,74.73
2023-08-07T03:17:46.240Z,74.78
2023-08-07T03:20:12.961Z,73.95
2023-08-07T03:22:39.359Z,74.48
2023-08-07T03:25:06.155Z,75.37
2023-08-07T03:27:32.608Z,75.06
2023-08-07T03:29:58.951Z,74.97
2023-08-07T03:32:25.335Z,75.42
2023-08-07T03:34:51.703Z,76.33
2023-08-07T03:37:18.098Z,75.47
2023-08-07T03:39:48.854Z,76.77
2023-08-07T03:42:18.177Z,75.60
2023-08-07T03:44:44.628Z,76.13
2023-08-07T03:47:11.035Z,76.68
2023-08-07T03:49:37.474Z,77.82
2023-08-07T03:52:04.260Z,77.96
2023-08-07T03:54:30.647Z,76.90
2023-08-07T03:56:57.350Z,78.50
2023-08-07T03:59:24.090Z,78.54
2023-08-07T04:01:50.504Z,77.65
2023-08-07T04:04:16.865Z,78.13
2023-08-07T04:06:44.911Z,78.85
2023-08-07T04:09:11.354Z,78.54
2023-08-07T04:11:37.946Z,78.95
2023-08-07T04:14:05.006Z,78.55
2023-08-07T04:16:32.464Z,79.10
2023-08-07T04:18:58.915Z,78.82
2023-08-07T04:21:25.365Z,80.64
2023-08-07T04:23:51.793Z,80.95
2023-08-07T04:26:18.166Z,81.04
2023-08-07T04:28:44.529Z,81.07
2023-08-07T04:31:10.921Z,81.27
2023-08-07T04:33:37.547Z,81.86
2023-08-07T04:36:04.319Z,80.92
2023-08-07T04:38:30.711Z,80.69
2023-08-07T04:40:57.064Z,80.56
2023-08-07T04:43:23.481Z,80.52
2023-08-07T04:45:50.050Z,80.97
2023-08-07T04:48:16.927Z,79.69
2023-08-07T04:50:43.750Z,79.82
2023-08-07T04:53:10.407Z,79.82
2023-08-07T04:55:36.824Z,80.00
2023-08-07T04:58:03.356Z,78.70
2023-08-07T05:00:30.244Z,78.78
2023-08-07T05:02:56.932Z,78.27
2023-08-07T05:05:24.333Z,78.15
2023-08-07T05:07:50.933Z,77.96
2023-08-07T05:10:17.336Z,77.17
2023-08-07T05:12:43.705Z,76.99
2023-08-07T05:15:10.503Z,76.73
2023-08-07T05:17:37.073Z,75.33
2023-08-07T05:20:03.808Z,75.88
2023-08-07T05:22:30.454Z,75.58
2023-08-07T05:24:56.852Z,75.61
2023-08-07T05:27:23.258Z,75.79
2023-08-07T05:29:49.676Z,75.21
2023-08-07T05:32:16.147Z,74.74
2023-08-07T05:34:42.889Z,75.06
2023-08-07T05:37:09.416Z,74.97
2023-08-07T05:39:36.987Z,73.78
2023-08-07T05:42:03.954Z,74.32
2023-08-07T05:44:30.898Z,74.22
2023-08-07T05:46:57.538Z,73.35
2023-08-07T05:49:26.582Z,72.32
2023-08-07T05:51:54.059Z,72.64
2023-08-07T05:54:20.842Z,73.05
2023-08-07T05:56:47.313Z,73.43
2023-08-07T05:59:13.716Z,73.53
2023-08-07T06:01:44.650Z,72.56
2023-08-07T06:04:11.224Z,71.83
2023-08-07T06:06:40.221Z,72.28
2023-08-07T06:09:07.343Z,72.56
2023-08-07T06:11:33.886Z,71.67
2023-08-07T06:14:00.264Z,72.44
2023-08-07T06:16:27.063Z,73.06
2023-08-07T06:18:53.526Z,72.98
2023-08-07T06:21:21.330Z,72.01
2023-08-07T06:23:48.036Z,72.72
2023-08-07T06:26:14.601Z,71.84
2023-08-07T06:28:41.002Z,71.45
2023-08-07T06:31:09.016Z,71.50
2023-08-07T06:33:36.188Z,72.06
2023-08-07T06:36:03.553Z,72.51
2023-08-07T06:38:30.125Z,73.07
2023-08-07T06:40:56.711Z,73.04
2023-08-07T06:43:23.163Z,73.95
2023-08-07T06:45:57.299Z,75.12
2023-08-07T06:48:24.150Z,76.16
2023-08-07T06:50:51.504Z,76.36
2023-08-07T06:53:18.430Z,76.32
2023-08-07T06:55:45.007Z,77.97
2023-08-07T06:58:11.689Z,78.43
2023-08-07T07:00:38.312Z,78.86
2023-08-07T07:03:05.180Z,79.60
2023-08-07T07:05:33.058Z,79.81
2023-08-07T07:07:59.545Z,80.12
2023-08-07T07:10:26.009Z,80.28
2023-08-07T07:12:53.319Z,80.61
2023-08-07T07:15:19.803Z,81.23
2023-08-07T07:17:46.243Z,80.85
2023-08-07T07:20:13.039Z,80.37
2023-08-07T07:22:39.422Z,80.44
2023-08-07T07:25:06.387Z,81.17
2023-08-07T07:27:32.794Z,81.66
2023-08-07T07:29:59.225Z,81.62
2023-08-07T07:32:27.110Z,81.32
2023-08-07T07:34:53.510Z,81.66
2023-08-07T07:37:19.882Z,81.52
2023-08-07T07:39:46.276Z,80.83
2023-08-07T07:42:12.705Z,81.57
2023-08-07T07:44:40.698Z,81.67
2023-08-07T07:47:07.294Z,80.95
2023-08-07T07:49:34.538Z,81.26
2023-08-07T07:52:01.125Z,80.12
2023-08-07T07:54:29.302Z,80.37
2023-08-07T07:56:55.870Z,80.01
2023-08-07T07:59:22.424Z,80.13
2023-08-07T08:01:48.794Z,79.44
2023-08-07T08:04:15.607Z,79.17
2023-08-07T08:06:42.255Z,77.59
2023-08-07T08:09:10.844Z,78.16
2023-08-07T08:11:37.303Z,78.49
2023-08-07T08:14:03.685Z,77.99
2023-08-07T08:16:30.120Z,77.84
2023-08-07T08:18:56.470Z,77.18
2023-08-07T08:21:22.822Z,77.79
2023-08-07T08:23:49.184Z,76.97
2023-08-07T08:26:15.546Z,76.64
2023-08-07T08:28:41.920Z,76.71
2023-08-07T08:31:08.366Z,75.47
2023-08-07T08:33:34.742Z,76.05
2023-08-07T08:36:01.235Z,75.51
2023-08-07T08:38:33.605Z,75.89
2023-08-07T08:41:04.336Z,73.71
2023-08-07T08:43:35.642Z,75.01
2023-08-07T08:46:02.418Z,73.81
2023-08-07T08:48:32.490Z,74.19
2023-08-07T08:50:59.706Z,72.85
2023-08-07T08:53:26.519Z,73.28
2023-08-07T08:55:53.229Z,72.74
2023-08-07T08:58:21.128Z,73.14
2023-08-07T09:00:48.747Z,73.40
2023-08-07T09:03:15.253Z,73.92
2023-08-07T09:05:42.663Z,74.87
2023-08-07T09:08:10.518Z,74.74
2023-08-07T09:10:37.942Z,74.30
2023-08-07T09:13:06.683Z,74.17
2023-08-07T09:15:34.142Z,72.26
2023-08-07T09:18:02.111Z,73.91
2023-08-07T09:20:29.490Z,74.00
2023-08-07T09:22:56.076Z,73.27
2023-08-07T09:25:29.685Z,72.66
2023-08-07T09:27:57.955Z,72.31
2023-08-07T09:30:28.491Z,71.93
2023-08-07T09:32:55.194Z,72.13
2023-08-07T09:35:22.453Z,69.25
2023-08-07T09:37:48.839Z,69.42
2023-08-07T09:40:16.937Z,68.40
2023-08-07T09:42:43.301Z,69.40
2023-08-07T09:45:27.272Z,69.77
2023-08-07T09:48:12.276Z,70.00
2023-08-07T09:50:38.674Z,69.13
2023-08-07T09:53:05.028Z,70.84
2023-08-07T09:55:32.296Z,69.84
2023-08-07T09:58:00.700Z,69.66
2023-08-07T10:00:27.308Z,70.28
2023-08-07T10:02:55.270Z,71.17
2023-08-07T10:05:22.593Z,71.09
2023-08-07T10:07:49.960Z,71.42
2023-08-07T10:10:17.093Z,71.39
2023-08-07T10:12:46.980Z,71.27
2023-08-07T10:15:15.018Z,71.51
2023-08-07T10:17:42.072Z,71.25
2023-08-07T10:20:09.218Z,70.82
2023-08-07T10:22:39.163Z,71.29
2023-08-07T10:25:07.477Z,71.11
2023-08-07T10:27:43.356Z,70.91
2023-08-07T10:30:15.821Z,70.87
2023-08-07T10:32:45.325Z,69.71
2023-08-07T10:35:24.660Z,69.41
2023-08-07T10:37:52.489Z,68.59
2023-08-07T10:40:21.658Z,68.18
2023-08-07T10:42:55.265Z,66.46
2023-08-07T10:45:23.768Z,65.89
2023-08-07T10:48:11.187Z,63.85
2023-08-07T10:50:58.465Z,65.32
2023-08-07T10:53:30.582Z,63.91
2023-08-07T10:55:59.915Z,64.13
2023-08-07T10:58:34.923Z,62.55
2023-08-07T11:01:19.456Z,61.58
2023-08-07T11:03:50.214Z,61.07
2023-08-07T11:06:17.747Z,60.97
2023-08-07T11:08:44.344Z,60.90
2023-08-07T11:11:10.701Z,60.89
2023-08-07T11:13:37.115Z,59.42
2023-08-07T11:16:04.340Z,57.74
2023-08-07T11:18:31.916Z,59.69
2023-08-07T11:20:58.888Z,60.12
2023-08-07T11:23:29.291Z,57.30
2023-08-07T11:25:56.320Z,57.14
2023-08-07T11:28:24.683Z,57.52
2023-08-07T11:30:54.934Z,56.46
2023-08-07T11:33:22.177Z,56.92
2023-08-07T11:35:49.605Z,56.73
2023-08-07T11:38:37.610Z,56.68
2023-08-07T11:41:06.795Z,56.55
2023-08-07T11:43:35.020Z,56.17
2023-08-07T11:46:04.738Z,54.90
2023-08-07T11:48:34.246Z,55.46
2023-08-07T11:51:02.128Z,54.60
2023-08-07T11:53:31.092Z,55.20
2023-08-07T11:56:06.201Z,54.47
2023-08-07T11:58:37.148Z,55.06
2023-08-07T12:01:21.319Z,55.34
2023-08-07T12:03:54.332Z,53.72
2023-08-07T12:06:20.763Z,52.85
2023-08-07T12:08:51.061Z,52.39
2023-08-07T12:11:17.875Z,50.72
2023-08-07T12:13:46.097Z,49.53
2023-08-07T12:16:16.988Z,48.13
2023-08-07T12:18:50.672Z,49.29
2023-08-07T12:21:24.684Z,49.48
2023-08-07T12:23:52.316Z,48.86
2023-08-07T12:26:19.116Z,49.04
2023-08-07T12:28:45.565Z,49.56
2023-08-07T12:31:12.032Z,48.05
2023-08-07T12:33:38.474Z,46.96
2023-08-07T12:36:05.108Z,46.74
2023-08-07T12:38:31.583Z,46.38
2023-08-07T12:40:58.613Z,45.67
2023-08-07T12:43:25.097Z,44.93
2023-08-07T12:45:53.432Z,46.24
2023-08-07T12:48:20.789Z,44.66
2023-08-07T12:50:47.208Z,45.63
2023-08-07T12:53:13.562Z,45.08
2023-08-07T12:55:40.060Z,46.02
2023-08-07T12:58:06.653Z,45.01
2023-08-07T13:00:33.408Z,45.42
2023-08-07T13:03:00.364Z,47.36
2023-08-07T13:05:26.903Z,46.75
2023-08-07T13:07:55.851Z,46.36
2023-08-07T13:10:23.201Z,46.18
2023-08-07T13:12:50.742Z,45.76
2023-08-07T13:15:18.653Z,46.77
2023-08-07T13:17:45.632Z,47.10
2023-08-07T13:20:14.846Z,49.46
2023-08-07T13:22:43.411Z,51.09
2023-08-07T13:25:11.134Z,52.16
2023-08-07T13:27:38.866Z,51.26
2023-08-07T13:30:06.411Z,49.86
2023-08-07T13:32:35.791Z,49.66
2023-08-07T13:35:03.543Z,47.78
2023-08-07T13:37:30.281Z,47.09
2023-08-07T13:39:56.850Z,47.82
2023-08-07T13:42:28.382Z,48.39
2023-08-07T13:44:56.486Z,48.84
2023-08-07T13:47:22.923Z,49.73
2023-08-07T13:49:49.515Z,50.60
2023-08-07T13:52:16.167Z,50.72
2023-08-07T13:54:42.590Z,49.77
2023-08-07T13:57:08.964Z,48.64
2023-08-07T13:59:35.395Z,46.95
2023-08-07T14:02:01.868Z,48.82
2023-08-07T14:04:28.236Z,49.27
2023-08-07T14:06:54.702Z,50.06
2023-08-07T14:09:22.841Z,48.70
2023-08-07T14:11:50.441Z,47.88
2023-08-07T14:14:16.925Z,49.27
2023-08-07T14:16:43.961Z,49.88
2023-08-07T14:19:10.632Z,51.13
2023-08-07T14:21:37.080Z,55.55
2023-08-07T14:24:03.686Z,59.56
2023-08-07T14:26:30.323Z,58.91
2023-08-07T14:28:56.686Z,59.13
2023-08-07T14:31:23.083Z,57.29
2023-08-07T14:33:49.988Z,55.10
2023-08-07T14:36:16.752Z,52.71
2023-08-07T14:38:43.201Z,51.96
2023-08-07T14:41:09.643Z,51.49
2023-08-07T14:43:36.213Z,51.84
2023-08-07T14:46:02.630Z,50.89
2023-08-07T14:48:29.174Z,51.33
2023-08-07T14:50:57.165Z,51.72
2023-08-07T14:53:23.603Z,50.55
2023-08-07T14:55:50.054Z,49.92
2023-08-07T14:58:16.453Z,48.90
2023-08-07T15:00:43.083Z,48.12
2023-08-07T15:03:09.560Z,48.28
2023-08-07T15:05:36.030Z,47.79
2023-08-07T15:08:02.680Z,48.21
2023-08-07T15:10:29.742Z,48.41
2023-08-07T15:12:57.267Z,48.69
2023-08-07T15:15:23.645Z,48.68
2023-08-07T15:17:50.095Z,48.80
2023-08-07T15:20:17.017Z,48.87
2023-08-07T15:22:43.404Z,49.53
2023-08-07T15:25:10.891Z,47.64
2023-08-07T15:27:37.377Z,47.50
2023-08-07T15:30:04.036Z,47.71
2023-08-07T15:32:30.413Z,49.32
2023-08-07T15:34:56.851Z,49.86
2023-08-07T15:37:23.277Z,47.73
2023-08-07T15:39:49.744Z,46.43
2023-08-07T15:42:16.111Z,48.25
2023-08-07T15:44:42.494Z,48.67
2023-08-07T15:47:08.866Z,48.48
2023-08-07T15:49:35.302Z,48.71
2023-08-07T15:52:01.715Z,49.52
2023-08-07T15:54:28.076Z,47.77
2023-08-07T15:56:54.487Z,47.62
2023-08-07T15:59:20.891Z,46.36
2023-08-07T16:01:47.386Z,46.05
2023-08-07T16:04:13.805Z,44.33
2023-08-07T16:06:40.330Z,43.59
2023-08-07T16:09:07.291Z,42.37
2023-08-07T16:11:33.791Z,41.55
2023-08-07T16:14:00.214Z,45.28
2023-08-07T16:16:27.183Z,46.01
2023-08-07T16:18:53.648Z,45.42
2023-08-07T16:21:20.293Z,42.95
2023-08-07T16:23:46.685Z,45.72
2023-08-07T16:26:13.057Z,45.01
2023-08-07T16:28:39.525Z,44.62
2023-08-07T16:31:05.941Z,42.97
2023-08-07T16:33:32.339Z,43.39
2023-08-07T16:35:58.709Z,43.50
2023-08-07T16:38:25.072Z,42.70
2023-08-07T16:40:51.477Z,42.88
2023-08-07T16:43:17.831Z,43.08
2023-08-07T16:45:44.237Z,44.11
2023-08-07T16:48:11.043Z,44.58
2023-08-07T16:50:37.607Z,44.08
2023-08-07T16:53:04.302Z,44.53
2023-08-07T16:55:30.686Z,45.20
2023-08-07T16:57:57.101Z,45.67
2023-08-07T17:00:23.636Z,45.15
2023-08-07T17:02:50.346Z,46.22
2023-08-07T17:05:16.866Z,46.23
2023-08-07T17:07:43.279Z,46.12
2023-08-07T17:10:14.110Z,46.97
2023-08-07T17:12:41.867Z,46.41
2023-08-07T17:15:08.760Z,47.32
2023-08-07T17:17:35.381Z,46.37
2023-08-07T17:20:02.331Z,47.56
2023-08-07T17:22:28.857Z,46.62
2023-08-07T17:24:55.248Z,47.44
2023-08-07T17:27:21.974Z,47.76
2023-08-07T17:29:48.394Z,47.96
2023-08-07T17:32:14.963Z,48.55
2023-08-07T17:34:41.358Z,49.09
2023-08-07T17:37:07.778Z,47.87
2023-08-07T17:39:34.163Z,48.95
2023-08-07T17:42:00.585Z,48.24
2023-08-07T17:44:26.996Z,48.55
2023-08-07T17:46:53.846Z,48.44
2023-08-07T17:49:20.353Z,49.69
2023-08-07T17:51:46.819Z,49.72
2023-08-07T17:54:13.209Z,49.59
2023-08-07T17:56:39.555Z,49.54
2023-08-07T17:59:06.747Z,49.40
2023-08-07T18:01:33.502Z,49.21
2023-08-07T18:04:02.951Z,48.98
2023-08-07T18:06:30.313Z,49.19
2023-08-07T18:08:57.765Z,50.49
2023-08-07T18:11:24.149Z,49.83
2023-08-07T18:13:50.684Z,50.79
2023-08-07T18:16:17.701Z,50.26
2023-08-07T18:18:44.567Z,50.51
2023-08-07T18:21:11.244Z,50.00
2023-08-07T18:23:37.617Z,50.99
2023-08-07T18:26:04.032Z,50.68
2023-08-07T18:28:33.479Z,50.29
2023-08-07T18:31:00.209Z,50.63
2023-08-07T18:33:27.835Z,50.61
2023-08-07T18:35:55.271Z,51.10
2023-08-07T18:38:21.687Z,51.07
2023-08-07T18:40:48.157Z,51.38
2023-08-07T18:43:14.585Z,51.88
2023-08-07T18:45:40.965Z,52.83
2023-08-07T18:48:08.997Z,52.36
2023-08-07T18:50:35.595Z,52.90
2023-08-07T18:53:02.233Z,52.17
2023-08-07T18:55:29.002Z,53.36
2023-08-07T18:57:55.368Z,53.92
2023-08-07T19:00:22.132Z,54.04
2023-08-07T19:02:49.137Z,54.22
2023-08-07T19:05:15.698Z,54.82
2023-08-07T19:07:42.338Z,54.58
2023-08-07T19:10:09.313Z,54.75
2023-08-07T19:12:36.207Z,54.88
2023-08-07T19:15:04.394Z,55.45
2023-08-07T19:17:30.773Z,54.97
2023-08-07T19:19:57.369Z,55.44
2023-08-07T19:22:26.393Z,54.51
2023-08-07T19:24:53.202Z,54.96
2023-08-07T19:27:19.851Z,55.14
2023-08-07T19:29:46.271Z,55.75
2023-08-07T19:32:12.828Z,56.29
2023-08-07T19:34:39.198Z,55.46
2023-08-07T19:37:06.197Z,55.75
2023-08-07T19:39:32.770Z,56.12
2023-08-07T19:41:59.172Z,55.96
2023-08-07T19:44:25.698Z,56.57
2023-08-07T19:46:52.145Z,56.49
2023-08-07T19:49:18.554Z,57.01
2023-08-07T19:51:45.171Z,56.42
2023-08-07T19:54:12.416Z,57.27
2023-08-07T19:56:38.835Z,57.67
2023-08-07T19:59:06.265Z,57.74
2023-08-07T20:01:33.377Z,56.19
2023-08-07T20:06:56.984Z,56.77
2023-08-07T20:09:23.590Z,57.07
2023-08-07T20:11:49.974Z,57.11
2023-08-07T20:14:16.462Z,57.13
2023-08-07T20:16:42.881Z,57.28
2023-08-07T20:19:09.337Z,57.90
2023-08-07T20:21:36.011Z,57.20
2023-08-07T20:24:02.471Z,58.99
2023-08-07T20:26:29.594Z,58.15
2023-08-07T20:28:58.624Z,57.26
2023-08-07T20:31:25.379Z,57.86
2023-08-07T20:33:51.787Z,58.79
2023-08-07T20:36:18.552Z,59.27
2023-08-07T20:38:44.904Z,59.24
2023-08-07T20:41:11.281Z,59.10
2023-08-07T20:43:37.635Z,58.71
2023-08-07T20:46:04.046Z,59.45
2023-08-07T20:48:30.544Z,59.06
2023-08-07T20:50:56.967Z,59.58
2023-08-07T20:53:23.343Z,59.01
2023-08-07T20:55:49.709Z,59.68
2023-08-07T20:58:16.072Z,60.57
2023-08-07T21:00:42.510Z,60.11
2023-08-07T21:03:08.983Z,60.08
2023-08-07T21:05:35.418Z,60.60
2023-08-07T21:08:01.836Z,59.58
2023-08-07T21:10:28.224Z,59.50
2023-08-07T21:12:54.582Z,60.70
2023-08-07T21:15:21.296Z,60.35
2023-08-07T21:17:47.733Z,61.53
2023-08-07T21:20:14.359Z,60.69
2023-08-07T21:22:41.002Z,60.90
2023-08-07T21:25:07.944Z,61.70
2023-08-07T21:27:35.003Z,61.85
2023-08-07T21:30:01.431Z,61.99
2023-08-07T21:32:27.802Z,62.51
2023-08-07T21:34:54.406Z,62.56
2023-08-07T21:37:21.994Z,62.68
2023-08-07T21:39:48.389Z,63.15
2023-08-07T21:42:14.984Z,63.16
2023-08-07T21:44:41.419Z,62.18
2023-08-07T21:47:07.956Z,62.04
2023-08-07T21:49:34.816Z,62.58
2023-08-07T21:52:01.646Z,62.21
2023-08-07T21:54:28.008Z,61.88
2023-08-07T21:56:54.360Z,62.02
2023-08-07T21:59:20.836Z,62.17
2023-08-07T22:01:47.273Z,61.55
2023-08-07T22:04:13.668Z,61.46
2023-08-07T22:06:40.166Z,61.81
2023-08-07T22:09:06.594Z,62.43
2023-08-07T22:11:32.975Z,61.55
2023-08-07T22:14:00.365Z,62.13
2023-08-07T22:16:27.317Z,62.01
2023-08-07T22:18:53.752Z,61.72
2023-08-07T22:21:20.201Z,61.84
2023-08-07T22:23:46.696Z,61.37
2023-08-07T22:26:13.107Z,62.09
2023-08-07T22:28:39.800Z,60.59
2023-08-07T22:31:07.049Z,61.82
2023-08-07T22:33:36.111Z,61.99
2023-08-07T22:36:02.553Z,62.33
2023-08-07T22:38:31.320Z,61.93
2023-08-07T22:40:57.720Z,62.45
2023-08-07T22:43:24.461Z,62.43
2023-08-07T22:45:51.346Z,62.83
2023-08-07T22:48:18.027Z,62.60
2023-08-07T22:50:44.420Z,62.38
2023-08-07T22:53:10.782Z,62.25
2023-08-07T22:55:37.547Z,62.17
2023-08-07T22:58:04.110Z,62.08
2023-08-07T23:00:32.441Z,63.31
2023-08-07T23:14:19.788Z,63.72
2023-08-07T23:28:25.735Z,64.13
2023-08-07T23:30:52.523Z,64.77
2023-08-07T23:33:18.925Z,63.96
2023-08-07T23:35:45.308Z,64.41
2023-08-07T23:38:11.721Z,64.13
2023-08-07T23:40:39.595Z,64.14
2023-08-07T23:43:08.593Z,64.61
2023-08-07T23:45:35.305Z,64.34
2023-08-07T23:48:01.730Z,64.89
2023-08-07T23:50:28.146Z,65.32
2023-08-07T23:52:54.525Z,65.35
2023-08-07T23:55:20.931Z,65.48
2023-08-07T23:57:47.318Z,64.93
